Time;durP1;ratioP1;P1;durP2;ratioP2;P2;SDS_P1;SDS_P2;PMS_P1;PMS_P2;Temp;Humidity;BMP_temperature;BMP_pressure;BME280_temperature;BME280_humidity;BME280_pressure;Samples;Min_cycle;Max_cycle;Signal;HPM_P1;HPM_P2
2021/05/03 00:02:14;;;;;;;7.87;6.27;;;7.40;99.90;;;;;;5011335;28;20232;-65
2021/05/03 00:04:39;;;;;;;7.03;6.40;;;7.40;99.90;;;;;;5011046;28;20230;-65
2021/05/03 00:07:05;;;;;;;6.30;5.70;;;7.30;99.90;;;;;;5010547;28;20190;-65
2021/05/03 00:09:30;;;;;;;6.70;6.10;;;7.20;99.90;;;;;;5010859;28;20216;-65
2021/05/03 00:11:56;;;;;;;7.60;6.27;;;7.20;99.90;;;;;;5010676;28;20171;-66
2021/05/03 00:14:21;;;;;;;7.17;5.60;;;7.10;99.90;;;;;;5011291;28;20195;-66
2021/05/03 00:16:47;;;;;;;6.63;5.73;;;7.10;99.90;;;;;;5010652;28;20183;-65
2021/05/03 00:19:13;;;;;;;7.77;7.07;;;7.00;99.90;;;;;;5000640;28;20171;-65
2021/05/03 00:21:38;;;;;;;7.10;6.40;;;7.00;99.90;;;;;;5010630;28;20274;-65
2021/05/03 00:24:04;;;;;;;6.97;6.27;;;7.00;99.90;;;;;;5010543;28;20525;-65
2021/05/03 00:26:30;;;;;;;7.23;6.17;;;6.90;99.90;;;;;;5010597;28;20374;-66
2021/05/03 00:28:55;;;;;;;6.37;5.87;;;6.90;99.90;;;;;;5010608;28;20438;-66
2021/05/03 00:31:21;;;;;;;6.30;5.70;;;6.80;99.90;;;;;;5010431;28;20199;-66
2021/05/03 00:33:46;;;;;;;5.90;5.30;;;6.80;99.90;;;;;;5011038;28;20197;-65
2021/05/03 00:36:12;;;;;;;7.10;6.43;;;6.70;99.90;;;;;;5010797;28;20194;-65
2021/05/03 00:38:37;;;;;;;7.63;6.90;;;6.70;99.90;;;;;;5011017;28;20266;-65
2021/05/03 00:41:03;;;;;;;6.60;6.00;;;6.70;99.90;;;;;;5008997;28;20688;-65
2021/05/03 00:43:29;;;;;;;8.13;6.77;;;6.60;99.90;;;;;;5008235;28;20179;-65
2021/05/03 00:45:54;;;;;;;7.13;6.43;;;6.70;99.90;;;;;;5010398;28;20247;-65
2021/05/03 00:48:20;;;;;;;7.03;6.43;;;6.70;99.90;;;;;;5010303;28;20661;-66
2021/05/03 00:50:47;;;;;;;7.70;6.90;;;6.70;99.90;;;;;;5010062;28;21516;-65
2021/05/03 00:53:12;;;;;;;7.20;6.33;;;6.70;99.90;;;;;;5010580;28;20425;-66
2021/05/03 00:55:38;;;;;;;8.60;6.77;;;6.60;99.90;;;;;;5010189;28;20468;-65
2021/05/03 00:58:05;;;;;;;9.83;6.80;;;6.60;99.90;;;;;;5010390;28;20179;-66
2021/05/03 01:00:31;;;;;;;8.20;7.40;;;6.60;99.90;;;;;;5010654;28;20190;-65
2021/05/03 01:02:58;;;;;;;7.13;6.53;;;6.60;99.90;;;;;;5010782;28;20441;-66
2021/05/03 01:05:28;;;;;;;6.50;5.90;;;6.70;99.90;;;;;;5010311;28;20465;-65
2021/05/03 01:07:53;;;;;;;7.27;6.50;;;6.80;99.90;;;;;;5001240;28;20438;-66
2021/05/03 01:10:19;;;;;;;7.30;6.60;;;6.80;99.90;;;;;;5010118;28;20460;-65
2021/05/03 01:12:44;;;;;;;8.07;7.00;;;6.80;99.90;;;;;;5010449;28;20258;-66
2021/05/03 01:15:11;;;;;;;9.07;7.10;;;6.80;99.90;;;;;;5010240;28;20712;-65
2021/05/03 01:17:40;;;;;;;8.40;7.33;;;6.80;99.90;;;;;;5009308;28;20563;-66
2021/05/03 01:20:11;;;;;;;8.43;7.27;;;6.70;99.90;;;;;;4996477;28;20441;-65
2021/05/03 01:22:36;;;;;;;9.70;8.70;;;6.70;99.90;;;;;;5009914;28;20441;-65
2021/05/03 01:25:03;;;;;;;9.60;8.70;;;6.70;99.90;;;;;;5010131;28;20468;-65
2021/05/03 01:27:29;;;;;;;8.37;7.57;;;6.70;99.90;;;;;;5010090;28;20542;-65
2021/05/03 01:29:55;;;;;;;10.27;9.27;;;6.80;99.90;;;;;;5009787;28;20477;-65
2021/05/03 01:32:20;;;;;;;11.17;9.10;;;6.80;99.90;;;;;;5009801;28;20420;-66
2021/05/03 01:34:46;;;;;;;9.90;8.57;;;6.80;99.90;;;;;;5010712;28;20666;-65
2021/05/03 01:37:15;;;;;;;10.33;9.00;;;6.70;99.90;;;;;;5008678;28;20198;-65
2021/05/03 01:39:40;;;;;;;11.10;9.17;;;6.70;99.90;;;;;;5010519;28;20224;-65
2021/05/03 01:42:06;;;;;;;11.47;9.97;;;6.70;99.90;;;;;;5013261;28;20434;-66
2021/05/03 01:44:32;;;;;;;9.17;8.27;;;6.60;99.90;;;;;;5013544;28;20213;-65
2021/05/03 01:46:58;;;;;;;9.67;8.67;;;6.60;99.90;;;;;;5012852;28;20179;-65
2021/05/03 01:49:26;;;;;;;10.00;8.97;;;6.40;99.90;;;;;;5014022;28;20557;-66
2021/05/03 01:51:52;;;;;;;9.87;8.97;;;6.30;99.90;;;;;;5013598;28;20522;-66
2021/05/03 01:54:17;;;;;;;10.10;9.10;;;6.20;99.90;;;;;;5013118;28;20465;-66
2021/05/03 01:56:43;;;;;;;11.13;8.93;;;6.10;99.90;;;;;;5012671;28;20237;-66
2021/05/03 01:59:08;;;;;;;8.97;8.17;;;6.10;99.90;;;;;;5013333;28;20171;-65
2021/05/03 02:01:38;;;;;;;10.53;9.50;;;6.00;99.90;;;;;;5013220;28;20693;-65
2021/05/03 02:04:04;;;;;;;10.87;9.77;;;6.00;99.90;;;;;;5013842;28;20179;-65
2021/05/03 02:06:29;;;;;;;10.10;9.10;;;6.00;99.90;;;;;;5013087;28;20440;-65
2021/05/03 02:08:55;;;;;;;10.43;9.43;;;6.00;99.90;;;;;;5013501;28;20433;-65
2021/05/03 02:11:20;;;;;;;10.07;9.13;;;6.00;99.90;;;;;;5013176;28;20218;-65
2021/05/03 02:13:46;;;;;;;11.00;9.90;;;6.00;99.90;;;;;;5013526;28;20171;-65
2021/05/03 02:16:11;;;;;;;9.70;8.13;;;6.10;99.90;;;;;;5012200;28;20611;-65
2021/05/03 02:18:37;;;;;;;9.27;8.37;;;6.00;99.90;;;;;;4997275;28;20211;-65
2021/05/03 02:21:02;;;;;;;12.50;9.10;;;5.90;99.90;;;;;;5004459;28;20190;-65
2021/05/03 02:23:28;;;;;;;10.53;9.37;;;5.90;99.90;;;;;;5013046;28;20194;-65
2021/05/03 02:25:54;;;;;;;11.33;10.23;;;5.80;99.90;;;;;;5013070;28;20640;-64
2021/05/03 02:28:19;;;;;;;10.47;9.50;;;5.80;99.90;;;;;;5012900;28;20668;-64
2021/05/03 02:30:45;;;;;;;9.87;8.83;;;5.80;99.90;;;;;;5013076;28;20739;-66
2021/05/03 02:33:10;;;;;;;10.63;9.73;;;5.80;99.90;;;;;;5002222;28;20188;-65
2021/05/03 02:35:36;;;;;;;10.73;9.70;;;5.80;99.90;;;;;;5012953;28;20696;-66
2021/05/03 02:38:03;;;;;;;9.47;8.67;;;5.70;99.90;;;;;;5012999;28;20174;-65
2021/05/03 02:40:31;;;;;;;9.87;8.80;;;5.70;99.90;;;;;;5013143;28;20214;-65
2021/05/03 02:42:58;;;;;;;10.73;9.70;;;5.60;99.90;;;;;;5004090;28;20453;-65
2021/05/03 02:45:25;;;;;;;11.93;10.00;;;5.60;99.90;;;;;;5006632;28;20515;-64
2021/05/03 02:47:52;;;;;;;11.93;9.70;;;5.50;99.90;;;;;;5012995;28;20491;-66
2021/05/03 02:50:19;;;;;;;10.40;9.20;;;5.50;99.90;;;;;;5011873;28;21097;-65
2021/05/03 02:52:45;;;;;;;10.80;9.70;;;5.60;99.90;;;;;;5012634;28;20433;-65
2021/05/03 02:55:11;;;;;;;10.77;9.77;;;5.50;99.90;;;;;;5012906;28;20457;-65
2021/05/03 02:57:42;;;;;;;11.67;9.83;;;5.40;99.90;;;;;;5011966;28;20969;-65
2021/05/03 03:00:09;;;;;;;11.57;10.40;;;5.50;99.90;;;;;;5012320;28;20278;-66
2021/05/03 03:02:35;;;;;;;10.60;8.90;;;5.40;99.90;;;;;;5012579;28;20441;-66
2021/05/03 03:05:01;;;;;;;11.00;9.87;;;5.40;99.90;;;;;;5012687;28;20461;-65
2021/05/03 03:07:26;;;;;;;11.37;10.27;;;5.30;99.90;;;;;;5012415;28;20593;-64
2021/05/03 03:09:52;;;;;;;10.90;9.30;;;5.30;99.90;;;;;;5012205;28;20199;-65
2021/05/03 03:12:18;;;;;;;12.00;10.00;;;5.30;99.90;;;;;;5011955;28;20175;-66
2021/05/03 03:14:43;;;;;;;12.77;9.93;;;5.30;99.90;;;;;;5012149;28;20199;-65
2021/05/03 03:17:09;;;;;;;11.10;9.93;;;5.40;99.90;;;;;;5011030;28;20189;-65
2021/05/03 03:19:41;;;;;;;11.80;10.60;;;5.30;99.90;;;;;;5011849;28;20186;-65
2021/05/03 03:22:08;;;;;;;10.67;9.57;;;5.30;99.90;;;;;;5011939;28;20193;-65
2021/05/03 03:24:34;;;;;;;13.37;10.77;;;5.30;99.90;;;;;;5011623;28;20523;-65
2021/05/03 03:27:00;;;;;;;11.27;10.10;;;5.40;99.90;;;;;;5011688;28;20499;-64
2021/05/03 03:29:26;;;;;;;10.90;9.80;;;5.40;99.90;;;;;;5010638;28;20442;-64
2021/05/03 03:31:51;;;;;;;10.93;9.77;;;5.40;99.90;;;;;;5012225;28;20495;-65
2021/05/03 03:34:17;;;;;;;11.33;10.13;;;5.30;99.90;;;;;;5011274;28;20214;-64
2021/05/03 03:36:42;;;;;;;13.00;11.70;;;5.30;99.90;;;;;;5011988;28;20684;-65
2021/05/03 03:39:09;;;;;;;11.30;10.10;;;5.40;99.90;;;;;;5011051;28;20183;-65
2021/05/03 03:41:35;;;;;;;12.00;10.70;;;5.40;99.90;;;;;;5011436;28;20182;-66
2021/05/03 03:44:01;;;;;;;11.33;10.13;;;5.40;99.90;;;;;;5010503;28;20464;-66
2021/05/03 03:46:27;;;;;;;13.53;12.13;;;5.40;99.90;;;;;;5011794;28;20461;-65
2021/05/03 03:48:53;;;;;;;10.03;9.13;;;5.40;99.90;;;;;;5010888;28;20425;-65
2021/05/03 03:51:18;;;;;;;12.17;11.03;;;5.50;99.90;;;;;;5011085;28;20272;-65
2021/05/03 03:53:44;;;;;;;11.50;10.30;;;5.50;99.90;;;;;;5012234;28;20187;-65
2021/05/03 03:56:12;;;;;;;12.87;11.40;;;5.50;99.90;;;;;;5011411;28;20195;-64
2021/05/03 03:58:38;;;;;;;14.97;12.70;;;5.60;99.90;;;;;;5011253;28;20190;-66
2021/05/03 04:01:03;;;;;;;11.77;10.53;;;5.60;99.90;;;;;;5011151;28;21010;-64
2021/05/03 04:03:29;;;;;;;11.40;10.30;;;5.50;99.90;;;;;;5011217;28;20576;-65
2021/05/03 04:06:13;;;;;;;11.77;10.57;;;5.40;99.90;;;;;;5011407;28;20281;-65
2021/05/03 04:11:15;;;;;;;11.10;10.00;;;5.30;99.90;;;;;;5010565;28;20468;-65
2021/05/03 04:27:05;;;;;;;15.07;10.37;;;5.40;99.90;;;;;;5010718;28;20438;-65
2021/05/03 04:29:30;;;;;;;13.43;10.83;;;5.40;99.90;;;;;;5006114;28;20870;-65
2021/05/03 04:31:56;;;;;;;12.30;10.70;;;5.40;99.90;;;;;;4997010;28;20174;-64
2021/05/03 04:34:22;;;;;;;12.97;11.57;;;5.40;99.90;;;;;;5010740;28;20199;-65
2021/05/03 04:36:47;;;;;;;11.83;10.63;;;5.40;99.90;;;;;;5011051;28;20190;-65
2021/05/03 04:39:13;;;;;;;11.77;10.67;;;5.30;99.90;;;;;;5010466;28;20170;-65
2021/05/03 04:41:38;;;;;;;12.47;10.20;;;5.20;99.90;;;;;;5010837;28;20270;-64
2021/05/03 04:44:05;;;;;;;11.53;10.33;;;5.30;99.90;;;;;;5008834;28;20673;-65
2021/05/03 04:46:30;;;;;;;10.63;9.67;;;5.40;99.90;;;;;;5009450;28;20197;-65
2021/05/03 04:48:56;;;;;;;10.50;9.53;;;5.50;99.90;;;;;;5010265;28;20804;-65
2021/05/03 04:51:22;;;;;;;13.67;11.37;;;5.60;99.90;;;;;;5010129;28;20199;-64
2021/05/03 04:53:48;;;;;;;12.33;10.70;;;5.70;99.90;;;;;;5009472;28;20441;-64
2021/05/03 04:56:13;;;;;;;12.40;11.20;;;5.70;99.90;;;;;;4992703;28;20696;-65
2021/05/03 04:58:39;;;;;;;12.67;11.20;;;5.70;99.90;;;;;;5007606;28;20645;-64
2021/05/03 05:01:04;;;;;;;11.90;10.70;;;5.70;99.90;;;;;;5009517;28;20645;-65
2021/05/03 05:03:30;;;;;;;12.00;10.77;;;5.70;99.90;;;;;;5010525;28;20563;-65
2021/05/03 05:05:56;;;;;;;14.47;10.87;;;5.80;99.90;;;;;;5010819;28;20203;-66
2021/05/03 05:08:22;;;;;;;13.73;12.27;;;6.00;99.90;;;;;;5010503;28;20183;-65
2021/05/03 05:10:48;;;;;;;13.03;11.23;;;6.10;99.90;;;;;;5010484;28;20198;-65
2021/05/03 05:13:14;;;;;;;18.70;12.83;;;6.20;99.90;;;;;;5012757;28;20752;-65
2021/05/03 05:15:39;;;;;;;11.20;10.10;;;6.40;99.90;;;;;;5014266;28;20202;-65
2021/05/03 05:18:07;;;;;;;11.67;10.43;;;6.50;99.90;;;;;;5014652;28;20534;-66
2021/05/03 05:20:32;;;;;;;17.60;12.53;;;6.60;99.90;;;;;;5014363;28;20538;-66
2021/05/03 05:22:58;;;;;;;14.60;11.60;;;6.80;99.90;;;;;;5014458;28;20441;-65
2021/05/03 05:25:23;;;;;;;10.87;9.77;;;6.80;99.90;;;;;;5013410;28;20680;-66
2021/05/03 05:27:49;;;;;;;14.43;12.93;;;7.00;99.90;;;;;;5014374;28;20756;-64
2021/05/03 05:30:15;;;;;;;13.67;12.30;;;7.20;99.90;;;;;;5012831;28;20229;-65
2021/05/03 05:32:41;;;;;;;12.50;11.30;;;7.30;99.90;;;;;;5014212;28;20175;-66
2021/05/03 05:35:08;;;;;;;13.03;11.80;;;7.50;99.90;;;;;;5014350;28;20450;-66
2021/05/03 05:37:34;;;;;;;12.00;10.80;;;7.60;99.90;;;;;;4997700;28;21383;-65
2021/05/03 05:39:59;;;;;;;10.93;9.83;;;7.80;99.90;;;;;;5014160;28;20528;-64
2021/05/03 05:42:25;;;;;;;12.13;10.90;;;8.00;99.90;;;;;;5014105;28;20179;-66
2021/05/03 05:44:51;;;;;;;11.20;10.00;;;8.20;99.90;;;;;;5014098;28;20217;-65
2021/05/03 05:47:16;;;;;;;10.80;9.33;;;8.30;99.90;;;;;;5014264;28;20190;-65
2021/05/03 05:49:42;;;;;;;11.53;9.47;;;8.50;99.90;;;;;;5014043;28;20567;-64
2021/05/03 05:52:07;;;;;;;11.93;10.73;;;8.80;99.90;;;;;;5014323;28;20182;-66
2021/05/03 05:54:33;;;;;;;9.47;8.53;;;8.90;99.90;;;;;;5014528;28;20198;-66
2021/05/03 05:56:58;;;;;;;10.03;8.80;;;8.90;99.90;;;;;;5013648;28;20241;-65
2021/05/03 05:59:24;;;;;;;11.27;10.17;;;9.00;99.90;;;;;;5013691;28;20175;-66
2021/05/03 06:01:50;;;;;;;12.20;10.90;;;9.20;99.90;;;;;;5013896;28;20709;-65
2021/05/03 06:04:16;;;;;;;11.20;9.20;;;9.40;99.90;;;;;;5009553;28;20668;-65
2021/05/03 06:06:42;;;;;;;11.43;10.33;;;9.50;99.90;;;;;;5013399;28;20512;-65
2021/05/03 06:09:07;;;;;;;10.60;9.50;;;9.60;99.90;;;;;;5009791;28;20217;-65
2021/05/03 06:11:33;;;;;;;12.50;9.87;;;9.70;99.90;;;;;;5003575;28;20560;-64
2021/05/03 06:13:58;;;;;;;10.37;8.87;;;9.80;99.90;;;;;;5001054;28;20612;-65
2021/05/03 06:16:24;;;;;;;10.93;9.70;;;10.00;99.90;;;;;;4987409;28;20222;-67
2021/05/03 06:18:49;;;;;;;9.47;8.57;;;10.20;99.90;;;;;;4993692;28;20179;-65
2021/05/03 06:21:15;;;;;;;10.17;9.10;;;10.20;99.90;;;;;;5012354;28;20171;-66
2021/05/03 06:23:41;;;;;;;10.53;9.53;;;10.30;99.90;;;;;;5013229;28;20210;-65
2021/05/03 06:26:07;;;;;;;9.20;8.30;;;10.40;99.90;;;;;;5009205;28;20229;-65
2021/05/03 06:28:32;;;;;;;9.90;9.00;;;10.40;99.90;;;;;;5013090;28;20245;-65
2021/05/03 06:30:58;;;;;;;10.87;9.17;;;10.50;99.90;;;;;;5008387;28;20230;-65
2021/05/03 06:33:25;;;;;;;12.33;9.50;;;10.60;99.90;;;;;;5012367;28;20711;-64
2021/05/03 06:35:51;;;;;;;10.67;9.67;;;10.70;99.90;;;;;;5009413;28;20453;-64
2021/05/03 06:38:17;;;;;;;10.13;8.73;;;11.00;99.90;;;;;;5012824;28;20430;-65
2021/05/03 06:40:43;;;;;;;11.17;9.73;;;11.20;99.90;;;;;;5012554;28;20472;-66
2021/05/03 06:43:09;;;;;;;9.90;9.00;;;11.40;99.90;;;;;;5011877;28;20180;-66
2021/05/03 06:45:34;;;;;;;9.93;9.03;;;11.20;99.90;;;;;;5009246;28;20861;-66
2021/05/03 06:48:05;;;;;;;9.57;8.67;;;11.30;99.90;;;;;;4996865;28;20665;-65
2021/05/03 06:50:31;;;;;;;9.70;8.87;;;11.60;99.90;;;;;;5008387;28;20195;-64
2021/05/03 06:52:56;;;;;;;10.97;8.07;;;11.80;99.90;;;;;;5013841;28;20437;-66
2021/05/03 06:55:22;;;;;;;8.97;8.13;;;12.10;99.90;;;;;;5008644;28;20230;-66
2021/05/03 06:57:48;;;;;;;9.30;8.30;;;12.20;99.90;;;;;;5011956;28;20699;-65
2021/05/03 07:00:15;;;;;;;8.47;7.77;;;12.20;99.90;;;;;;5007950;28;20447;-65
2021/05/03 07:02:42;;;;;;;8.23;7.30;;;12.50;99.90;;;;;;5007257;28;20186;-65
2021/05/03 07:05:08;;;;;;;8.53;7.73;;;12.50;99.90;;;;;;5006080;28;20457;-64
2021/05/03 07:07:34;;;;;;;8.93;8.10;;;12.60;99.90;;;;;;5011932;28;20448;-65
2021/05/03 07:10:00;;;;;;;13.77;7.57;;;12.60;99.90;;;;;;5012103;28;20461;-64
2021/05/03 07:12:26;;;;;;;7.70;7.00;;;12.80;99.90;;;;;;5012278;28;20182;-66
2021/05/03 07:14:52;;;;;;;8.37;7.57;;;13.00;98.80;;;;;;5008113;28;20191;-65
2021/05/03 07:17:17;;;;;;;8.33;6.93;;;13.00;99.00;;;;;;5012045;28;20507;-65
2021/05/03 07:19:43;;;;;;;6.67;6.17;;;13.30;98.20;;;;;;5011876;28;20637;-65
2021/05/03 07:22:10;;;;;;;8.50;6.90;;;13.70;96.50;;;;;;5003784;28;20295;-65
2021/05/03 07:24:37;;;;;;;6.57;6.03;;;13.80;95.80;;;;;;5010938;28;20194;-63
2021/05/03 07:27:05;;;;;;;7.20;6.60;;;13.60;95.20;;;;;;5008977;28;20576;-64
2021/05/03 07:29:30;;;;;;;8.40;7.60;;;13.60;94.50;;;;;;5011507;28;20448;-65
2021/05/03 07:31:56;;;;;;;8.13;7.33;;;13.30;93.50;;;;;;5011986;28;20470;-65
2021/05/03 07:34:21;;;;;;;7.03;6.53;;;12.80;94.60;;;;;;5011774;28;20250;-65
2021/05/03 07:36:47;;;;;;;8.27;7.53;;;12.80;94.30;;;;;;5007233;28;20175;-65
2021/05/03 07:39:13;;;;;;;10.50;7.90;;;12.70;95.30;;;;;;5011597;28;20189;-65
2021/05/03 07:41:41;;;;;;;7.87;7.20;;;12.80;94.20;;;;;;5011638;28;20175;-65
2021/05/03 07:44:08;;;;;;;8.43;7.50;;;13.00;93.90;;;;;;5011344;28;20183;-65
2021/05/03 07:46:35;;;;;;;7.00;6.30;;;13.10;94.90;;;;;;5008370;28;20438;-65
2021/05/03 07:49:01;;;;;;;7.73;7.00;;;13.30;95.30;;;;;;5009880;28;20472;-64
2021/05/03 07:51:27;;;;;;;9.00;8.10;;;13.50;94.50;;;;;;5010145;28;20512;-64
2021/05/03 07:53:54;;;;;;;8.03;7.40;;;13.90;93.90;;;;;;5011482;28;20448;-65
2021/05/03 07:56:20;;;;;;;8.20;7.40;;;14.10;93.70;;;;;;5007465;28;20465;-65
2021/05/03 07:58:47;;;;;;;8.43;7.73;;;14.10;92.00;;;;;;5011248;28;20422;-65
2021/05/03 08:01:13;;;;;;;8.27;7.50;;;14.10;92.00;;;;;;5010743;28;20492;-65
2021/05/03 08:03:41;;;;;;;7.07;6.43;;;14.40;92.10;;;;;;5011203;28;20437;-65
2021/05/03 08:06:08;;;;;;;7.30;6.70;;;14.50;90.50;;;;;;5006335;28;20497;-65
2021/05/03 08:08:33;;;;;;;6.40;5.90;;;14.30;90.50;;;;;;5011290;28;20433;-66
2021/05/03 08:10:59;;;;;;;7.00;6.30;;;14.20;90.70;;;;;;5010415;28;20464;-65
2021/05/03 08:13:27;;;;;;;7.07;6.57;;;13.90;88.70;;;;;;5010546;28;20274;-63
2021/05/03 08:15:54;;;;;;;6.70;6.20;;;13.70;89.30;;;;;;5007959;28;20202;-64
2021/05/03 08:18:20;;;;;;;7.27;6.67;;;13.50;89.40;;;;;;5010605;28;20462;-66
2021/05/03 08:20:45;;;;;;;7.00;6.37;;;13.30;90.20;;;;;;5004559;28;20480;-65
2021/05/03 08:23:18;;;;;;;7.57;6.53;;;13.10;90.60;;;;;;5010099;28;20266;-66
2021/05/03 08:25:44;;;;;;;7.30;6.80;;;13.00;91.30;;;;;;5007123;28;20210;-64
2021/05/03 08:28:09;;;;;;;7.40;6.80;;;13.10;91.50;;;;;;5009973;28;20434;-64
2021/05/03 08:30:35;;;;;;;7.00;6.40;;;13.20;90.90;;;;;;5003884;28;20203;-66
2021/05/03 08:33:00;;;;;;;9.63;8.73;;;13.30;90.30;;;;;;5006494;28;20178;-66
2021/05/03 08:35:26;;;;;;;9.30;8.53;;;13.60;91.80;;;;;;5004391;28;20278;-64
2021/05/03 08:37:51;;;;;;;9.80;9.00;;;13.90;93.40;;;;;;4998912;28;20258;-65
2021/05/03 08:40:16;;;;;;;9.63;8.63;;;13.80;93.50;;;;;;5010013;28;20205;-66
2021/05/03 08:42:44;;;;;;;10.83;9.93;;;13.50;94.60;;;;;;5010294;28;20182;-65
2021/05/03 08:45:10;;;;;;;10.00;9.00;;;13.20;95.20;;;;;;5006184;28;20210;-66
2021/05/03 08:47:38;;;;;;;10.97;9.87;;;12.80;96.00;;;;;;5010121;28;20429;-66
2021/05/03 08:50:18;;;;;;;13.00;10.20;;;12.60;96.80;;;;;;5009772;28;20462;-66
2021/05/03 08:55:13;;;;;;;12.33;10.00;;;12.30;97.90;;;;;;5006659;28;20460;-65
2021/05/03 08:57:40;;;;;;;10.70;9.60;;;12.30;97.70;;;;;;5009995;28;20438;-66
2021/05/03 09:00:12;;;;;;;9.33;8.53;;;12.80;98.60;;;;;;5009702;28;20438;-62
2021/05/03 09:02:39;;;;;;;9.93;9.13;;;13.80;97.30;;;;;;5010554;28;20454;-66
2021/05/03 09:05:06;;;;;;;10.00;9.20;;;14.40;94.70;;;;;;5005542;28;20466;-64
2021/05/03 09:07:31;;;;;;;8.40;7.60;;;14.60;93.70;;;;;;5009362;28;20524;-65
2021/05/03 09:09:57;;;;;;;9.50;8.60;;;14.30;93.60;;;;;;5010171;28;20518;-66
2021/05/03 09:12:25;;;;;;;10.83;9.93;;;14.10;93.20;;;;;;5010251;28;20282;-65
2021/05/03 09:15:00;;;;;;;10.00;9.20;;;13.60;94.70;;;;;;5005731;28;20205;-65
2021/05/03 09:17:29;;;;;;;11.90;8.90;;;13.50;95.30;;;;;;5009424;28;20532;-65
2021/05/03 09:19:56;;;;;;;10.17;9.17;;;13.30;95.90;;;;;;5010234;28;20433;-66
2021/05/03 09:25:31;;;;;;;9.43;8.53;;;13.10;95.50;;;;;;5005537;28;20778;-66
2021/05/03 09:28:03;;;;;;;10.37;9.57;;;13.20;95.10;;;;;;5006070;28;20428;-66
2021/05/03 09:30:40;;;;;;;11.80;10.53;;;13.20;94.80;;;;;;5009241;28;20458;-65
2021/05/03 09:33:50;;;;;;;10.33;9.27;;;13.10;95.20;;;;;;5009709;28;20516;-66
2021/05/03 09:36:21;;;;;;;12.57;9.47;;;13.10;95.60;;;;;;4978395;28;20888;-66
2021/05/03 09:38:48;;;;;;;10.13;9.23;;;13.50;95.10;;;;;;5006378;28;20449;-64
2021/05/03 09:41:26;;;;;;;10.20;9.30;;;13.70;95.20;;;;;;5009296;28;20466;-65
2021/05/03 09:44:04;;;;;;;10.00;9.20;;;14.00;94.20;;;;;;5007870;28;20433;-66
2021/05/03 09:46:45;;;;;;;9.30;8.50;;;14.40;93.10;;;;;;5006612;28;20640;-66
2021/05/03 09:49:19;;;;;;;8.60;7.90;;;14.60;91.10;;;;;;5006853;28;20429;-66
2021/05/03 09:51:57;;;;;;;9.60;8.80;;;14.90;91.90;;;;;;5009978;28;20887;-65
2021/05/03 09:54:32;;;;;;;9.37;7.20;;;14.90;90.70;;;;;;5009319;28;21176;-65
2021/05/03 09:57:05;;;;;;;7.47;6.77;;;15.30;85.50;;;;;;5005063;28;20488;-64
2021/05/03 09:59:40;;;;;;;6.27;5.67;;;16.70;77.30;;;;;;5003814;28;20436;-66
2021/05/03 10:02:23;;;;;;;6.27;5.67;;;18.90;65.10;;;;;;5011750;28;20447;-66
2021/05/03 10:04:50;;;;;;;6.57;6.07;;;18.60;58.90;;;;;;5010854;28;20544;-64
2021/05/03 10:07:20;;;;;;;9.40;8.50;;;18.30;59.60;;;;;;5011519;28;20927;-65
2021/05/03 10:10:01;;;;;;;9.80;8.80;;;17.70;61.90;;;;;;5012060;28;20845;-65
2021/05/03 10:12:27;;;;;;;6.40;5.87;;;17.10;61.50;;;;;;5003532;28;20445;-66
2021/05/03 10:14:54;;;;;;;6.80;6.20;;;16.80;62.80;;;;;;5002654;28;20451;-64
2021/05/03 10:17:20;;;;;;;6.60;5.83;;;16.00;65.00;;;;;;5012483;28;20527;-65
2021/05/03 10:19:45;;;;;;;5.20;4.90;;;15.80;64.60;;;;;;5013131;28;20468;-65
2021/05/03 10:22:21;;;;;;;5.23;4.83;;;15.80;65.20;;;;;;5012896;28;20527;-65
2021/05/03 10:24:51;;;;;;;7.73;7.00;;;16.40;60.80;;;;;;5011210;28;20502;-65
2021/05/03 10:27:18;;;;;;;5.93;5.47;;;16.90;58.70;;;;;;5012253;28;20422;-65
2021/05/03 10:29:45;;;;;;;5.50;5.00;;;17.60;58.80;;;;;;5012564;28;20429;-66
2021/05/03 10:32:14;;;;;;;5.60;5.20;;;17.60;56.80;;;;;;5013085;28;20462;-66
2021/05/03 10:34:48;;;;;;;5.53;5.13;;;17.50;57.00;;;;;;5011406;28;20461;-65
2021/05/03 10:37:29;;;;;;;5.93;5.50;;;17.00;57.00;;;;;;5011688;28;20444;-65
2021/05/03 10:39:56;;;;;;;5.40;4.90;;;15.80;58.20;;;;;;4998260;28;20425;-65
2021/05/03 10:42:21;;;;;;;5.40;5.00;;;15.50;60.90;;;;;;5012586;28;20901;-65
2021/05/03 10:45:19;;;;;;;5.33;4.93;;;15.60;60.90;;;;;;5010632;28;20511;-66
2021/05/03 10:47:48;;;;;;;4.73;4.20;;;16.00;59.60;;;;;;5011602;28;20181;-65
2021/05/03 10:52:53;;;;;;;6.00;5.37;;;16.50;57.60;;;;;;5007668;28;20954;-66
2021/05/03 10:55:19;;;;;;;4.37;3.97;;;16.90;56.80;;;;;;5012593;28;20461;-66
2021/05/03 10:58:00;;;;;;;4.90;4.50;;;18.70;54.60;;;;;;5011832;28;20525;-66
2021/05/03 11:00:31;;;;;;;4.80;4.37;;;20.50;48.70;;;;;;5012444;28;20433;-66
2021/05/03 11:02:57;;;;;;;4.57;4.17;;;19.80;48.00;;;;;;5006801;28;20521;-66
2021/05/03 11:05:40;;;;;;;4.33;4.03;;;19.00;48.00;;;;;;5007426;28;20887;-66
2021/05/03 11:08:06;;;;;;;4.53;4.23;;;18.10;49.40;;;;;;5006459;28;20513;-65
2021/05/03 11:10:58;;;;;;;4.73;4.33;;;17.30;50.50;;;;;;5018978;28;20803;-66
2021/05/03 11:13:41;;;;;;;5.57;5.17;;;16.50;51.90;;;;;;5009678;28;20682;-66
2021/05/03 11:16:28;;;;;;;4.60;4.30;;;15.70;54.60;;;;;;5008635;28;20968;-65
2021/05/03 11:18:56;;;;;;;4.60;4.30;;;15.20;56.10;;;;;;5011477;28;20426;-66
2021/05/03 11:21:46;;;;;;;8.07;7.30;;;15.00;55.10;;;;;;5012025;28;20438;-65
2021/05/03 11:24:19;;;;;;;5.70;5.30;;;15.00;56.30;;;;;;4999456;28;20868;-66
2021/05/03 11:26:54;;;;;;;5.33;4.93;;;15.20;55.30;;;;;;5008235;28;20440;-66
2021/05/03 11:29:24;;;;;;;5.30;4.80;;;16.00;54.70;;;;;;5011879;28;20433;-66
2021/05/03 11:31:50;;;;;;;4.80;4.40;;;16.80;53.70;;;;;;5011256;28;20457;-66
2021/05/03 11:34:23;;;;;;;4.90;4.50;;;19.70;51.30;;;;;;5011723;28;21017;-66
2021/05/03 11:36:56;;;;;;;7.37;4.20;;;22.80;45.30;;;;;;5008339;28;20854;-65
2021/05/03 11:44:53;;;;;;;3.60;3.40;;;20.30;43.30;;;;;;5008761;28;20485;-65
2021/05/03 11:47:30;;;;;;;3.73;3.40;;;19.30;44.50;;;;;;5010776;28;20446;-66
2021/05/03 11:49:56;;;;;;;3.50;3.30;;;19.70;46.00;;;;;;5011485;28;20465;-66
2021/05/03 11:52:32;;;;;;;5.67;5.13;;;19.70;46.60;;;;;;5011233;28;20440;-65
2021/05/03 11:55:12;;;;;;;4.30;4.00;;;19.60;45.10;;;;;;5008101;28;20978;-66
2021/05/03 11:57:43;;;;;;;3.80;3.50;;;20.30;44.50;;;;;;5005869;28;20487;-67
2021/05/03 12:00:12;;;;;;;3.90;3.53;;;23.00;42.40;;;;;;5011233;28;20925;-66
2021/05/03 12:02:38;;;;;;;3.90;3.60;;;24.10;40.60;;;;;;5011058;28;20437;-65
2021/05/03 12:05:19;;;;;;;3.83;3.63;;;22.90;39.80;;;;;;5005720;28;20531;-65
2021/05/03 12:07:46;;;;;;;3.93;3.63;;;21.10;40.60;;;;;;4998166;28;20197;-66
2021/05/03 12:10:17;;;;;;;3.80;3.50;;;20.00;42.30;;;;;;4994844;28;20463;-66
2021/05/03 12:12:48;;;;;;;3.80;3.50;;;20.50;42.50;;;;;;5010998;28;20437;-66
2021/05/03 12:15:22;;;;;;;3.50;3.30;;;22.30;41.30;;;;;;5007887;28;20472;-66
2021/05/03 12:17:48;;;;;;;3.47;3.17;;;25.90;38.30;;;;;;5006045;28;20429;-63
2021/05/03 12:20:22;;;;;;;4.10;3.70;;;27.80;35.60;;;;;;5005572;28;21054;-64
2021/05/03 12:23:02;;;;;;;3.93;3.63;;;27.30;33.90;;;;;;5009995;28;20456;-66
2021/05/03 12:25:39;;;;;;;4.37;3.50;;;25.80;35.30;;;;;;5002786;28;20461;-64
2021/05/03 12:28:15;;;;;;;3.20;3.00;;;24.10;35.70;;;;;;5009987;28;20451;-63
2021/05/03 12:30:42;;;;;;;3.60;3.20;;;23.00;36.90;;;;;;5008661;28;20515;-64
2021/05/03 12:33:10;;;;;;;4.20;3.10;;;23.50;37.00;;;;;;5006832;28;20488;-65
2021/05/03 12:35:36;;;;;;;3.20;2.80;;;22.60;37.60;;;;;;5007334;28;20453;-66
2021/05/03 12:38:14;;;;;;;4.00;3.70;;;21.20;39.30;;;;;;5009941;28;20737;-66
2021/05/03 12:40:40;;;;;;;4.17;3.77;;;19.40;39.20;;;;;;5010640;28;20950;-65
2021/05/03 12:43:07;;;;;;;3.97;3.67;;;18.90;40.60;;;;;;5010223;28;20500;-66
2021/05/03 12:53:41;;;;;;;3.37;3.07;;;21.10;39.80;;;;;;5007952;28;20792;-66
2021/05/03 12:57:00;;;;;;;3.87;3.33;;;20.90;39.50;;;;;;5006961;28;21020;-66
2021/05/03 12:59:22;;;;;;;3.97;3.40;;;20.00;40.50;;;;;;5009240;28;20434;-66
2021/05/03 13:01:51;;;;;;;3.83;3.53;;;18.90;41.70;;;;;;5009359;28;20440;-67
2021/05/03 13:29:52;;;;;;;2.70;2.50;;;23.70;36.10;;;;;;5000195;28;20487;-64
2021/05/03 13:32:26;;;;;;;3.70;3.30;;;21.90;37.50;;;;;;5010171;28;20430;-66
2021/05/03 13:34:51;;;;;;;3.70;2.70;;;20.30;39.60;;;;;;5008763;28;20201;-64
2021/05/03 13:37:18;;;;;;;5.50;3.70;;;19.50;39.90;;;;;;5012930;28;20437;-66
2021/05/03 13:39:44;;;;;;;7.77;3.10;;;18.90;40.80;;;;;;5013334;28;20170;-66
2021/05/03 13:42:12;;;;;;;3.80;3.17;;;18.50;42.60;;;;;;5013842;28;20870;-65
2021/05/03 13:44:39;;;;;;;3.07;2.87;;;17.90;42.20;;;;;;5012913;28;20468;-63
2021/05/03 13:47:05;;;;;;;3.33;3.03;;;17.20;43.20;;;;;;5011005;28;20516;-66
2021/05/03 13:49:31;;;;;;;3.37;3.03;;;17.00;43.70;;;;;;5011557;28;20445;-65
2021/05/03 13:51:58;;;;;;;2.67;2.57;;;17.30;44.20;;;;;;5012826;28;20469;-66
2021/05/03 13:54:25;;;;;;;3.87;3.37;;;17.40;43.70;;;;;;5013522;28;20293;-66